createdAt,value
2022-12-18T00:02:07.399Z,31.10
2022-12-18T00:04:35.361Z,32.00
2022-12-18T00:07:03.863Z,30.97
2022-12-18T00:09:39.730Z,24.77
2022-12-18T00:14:46.846Z,28.87
2022-12-18T00:17:16.058Z,27.43
2022-12-18T00:19:43.993Z,28.87
2022-12-18T00:22:11.860Z,27.10
2022-12-18T00:24:39.753Z,24.60
2022-12-18T00:27:07.650Z,27.17
2022-12-18T00:29:35.725Z,26.07
2022-12-18T00:32:03.684Z,28.77
2022-12-18T00:34:32.922Z,25.13
2022-12-18T00:37:00.850Z,25.77
2022-12-18T00:39:28.736Z,27.40
2022-12-18T00:42:14.026Z,25.97
2022-12-18T00:44:41.957Z,27.63
2022-12-18T00:47:09.863Z,25.83
2022-12-18T00:49:39.079Z,26.50
2022-12-18T00:52:07.078Z,26.30
2022-12-18T00:54:35.009Z,29.63
2022-12-18T00:57:03.571Z,24.97
2022-12-18T00:59:31.980Z,25.43
2022-12-18T01:01:59.992Z,25.50
2022-12-18T01:04:29.316Z,28.67
2022-12-18T01:06:58.541Z,29.00
2022-12-18T01:09:26.841Z,28.93
2022-12-18T01:11:54.825Z,26.30
2022-12-18T01:14:23.184Z,25.77
2022-12-18T01:16:51.137Z,28.40
2022-12-18T01:19:19.057Z,25.87
2022-12-18T01:21:48.333Z,31.30
2022-12-18T01:24:17.894Z,27.40
2022-12-18T01:26:45.775Z,25.93
2022-12-18T01:29:15.835Z,26.67
2022-12-18T01:31:43.851Z,26.83
2022-12-18T01:34:12.172Z,25.57
2022-12-18T01:36:42.014Z,28.33
2022-12-18T01:39:13.138Z,24.93
2022-12-18T01:42:02.223Z,29.13
2022-12-18T01:44:55.348Z,30.53
2022-12-18T01:47:27.874Z,26.00
2022-12-18T01:49:57.788Z,24.27
2022-12-18T01:52:27.854Z,25.33
2022-12-18T01:54:57.345Z,23.23
2022-12-18T01:57:29.965Z,25.43
2022-12-18T02:00:20.570Z,24.20
2022-12-18T02:02:49.284Z,29.00
2022-12-18T02:05:20.020Z,28.03
2022-12-18T02:07:58.634Z,27.77
2022-12-18T02:10:33.649Z,27.60
2022-12-18T02:13:11.916Z,25.03
2022-12-18T02:15:45.813Z,27.23
2022-12-18T02:18:20.608Z,25.00
2022-12-18T02:20:56.152Z,29.93
2022-12-18T02:23:41.934Z,27.13
2022-12-18T02:26:22.340Z,26.93
2022-12-18T02:28:57.193Z,29.97
2022-12-18T02:31:29.285Z,27.70
2022-12-18T02:34:00.607Z,23.17
2022-12-18T02:36:30.956Z,28.40
2022-12-18T02:39:00.262Z,25.60
2022-12-18T02:41:31.396Z,25.57
2022-12-18T02:44:02.564Z,31.70
2022-12-18T02:46:37.135Z,27.00
2022-12-18T02:49:23.729Z,25.67
2022-12-18T02:51:57.148Z,25.43
2022-12-18T02:54:56.526Z,28.90
2022-12-18T02:57:36.773Z,25.30
2022-12-18T03:00:10.473Z,26.73
2022-12-18T03:02:47.674Z,26.17
2022-12-18T03:05:19.494Z,24.97
2022-12-18T03:07:52.545Z,27.13
2022-12-18T03:10:26.961Z,25.50
2022-12-18T03:13:02.502Z,30.80
2022-12-18T03:15:33.740Z,28.57
2022-12-18T03:18:12.708Z,31.07
2022-12-18T03:20:43.042Z,29.37
2022-12-18T03:23:14.017Z,28.70
2022-12-18T03:25:44.852Z,28.47
2022-12-18T03:28:17.663Z,28.20
2022-12-18T03:30:48.793Z,24.57
2022-12-18T03:33:21.286Z,23.90
2022-12-18T03:35:52.242Z,25.30
2022-12-18T03:38:20.790Z,24.87
2022-12-18T03:41:00.001Z,26.00
2022-12-18T03:43:42.518Z,23.90
2022-12-18T03:46:17.420Z,25.67
2022-12-18T03:48:51.406Z,25.50
2022-12-18T03:51:26.772Z,24.30
2022-12-18T03:54:00.357Z,24.97
2022-12-18T03:56:37.572Z,26.40
2022-12-18T03:59:09.822Z,24.03
2022-12-18T04:01:42.605Z,26.00
2022-12-18T04:04:15.705Z,28.13
2022-12-18T04:06:47.451Z,28.87
2022-12-18T04:09:16.524Z,26.70
2022-12-18T04:11:48.726Z,27.67
2022-12-18T04:14:19.286Z,31.67
2022-12-18T04:16:51.383Z,28.13
2022-12-18T04:19:23.333Z,27.70
2022-12-18T04:21:53.261Z,27.27
2022-12-18T04:24:21.350Z,28.80
2022-12-18T04:27:04.007Z,26.17
2022-12-18T04:29:36.994Z,23.40
2022-12-18T04:32:05.207Z,26.80
2022-12-18T04:34:34.399Z,26.07
2022-12-18T04:37:02.402Z,25.57
2022-12-18T04:39:31.129Z,27.00
2022-12-18T04:42:04.306Z,24.67
2022-12-18T04:44:32.218Z,22.33
2022-12-18T04:47:01.649Z,22.27
2022-12-18T04:49:29.692Z,22.27
2022-12-18T04:51:57.544Z,21.07
2022-12-18T04:54:25.468Z,19.43
2022-12-18T04:56:53.437Z,21.40
2022-12-18T04:59:21.917Z,22.33
2022-12-18T05:01:49.998Z,21.67
2022-12-18T05:04:19.399Z,20.10
2022-12-18T05:06:47.867Z,19.40
2022-12-18T05:09:16.596Z,18.67
2022-12-18T05:11:45.078Z,22.70
2022-12-18T05:14:14.283Z,19.10
2022-12-18T05:16:42.232Z,21.47
2022-12-18T05:19:10.548Z,21.80
2022-12-18T05:21:40.484Z,23.53
2022-12-18T05:24:08.824Z,24.73
2022-12-18T05:26:36.788Z,23.37
2022-12-18T05:29:05.079Z,20.53
2022-12-18T05:31:38.886Z,22.10
2022-12-18T05:34:07.942Z,22.20
2022-12-18T05:36:35.874Z,21.87
2022-12-18T05:39:05.464Z,24.03
2022-12-18T05:41:34.017Z,18.97
2022-12-18T05:44:02.290Z,19.43
2022-12-18T05:46:30.386Z,23.33
2022-12-18T05:49:01.595Z,22.17
2022-12-18T05:51:29.786Z,21.57
2022-12-18T05:53:57.635Z,22.07
2022-12-18T05:56:26.844Z,22.93
2022-12-18T05:58:55.967Z,22.77
2022-12-18T06:01:27.226Z,20.03
2022-12-18T06:03:55.483Z,19.43
2022-12-18T06:06:24.838Z,21.00
2022-12-18T06:08:53.202Z,18.90
2022-12-18T06:11:23.307Z,20.03
2022-12-18T06:13:58.270Z,20.20
2022-12-18T06:16:27.758Z,22.50
2022-12-18T06:18:58.070Z,19.90
2022-12-18T06:21:26.054Z,21.63
2022-12-18T06:23:54.041Z,20.03
2022-12-18T06:26:27.657Z,20.07
2022-12-18T06:28:57.901Z,17.27
2022-12-18T06:31:26.864Z,23.40
2022-12-18T06:33:54.872Z,18.80
2022-12-18T06:36:23.075Z,21.80
2022-12-18T06:38:51.083Z,19.00
2022-12-18T06:41:20.938Z,21.90
2022-12-18T06:43:48.877Z,20.27
2022-12-18T06:46:18.293Z,16.70
2022-12-18T06:48:49.852Z,21.40
2022-12-18T06:51:21.745Z,18.70
2022-12-18T06:53:49.711Z,21.00
2022-12-18T06:56:18.108Z,19.90
2022-12-18T06:58:46.027Z,19.73
2022-12-18T07:01:15.100Z,17.97
2022-12-18T07:03:45.399Z,18.20
2022-12-18T07:06:18.438Z,18.27
2022-12-18T07:08:46.687Z,20.10
2022-12-18T07:11:14.900Z,19.47
2022-12-18T07:13:43.482Z,22.47
2022-12-18T07:16:20.856Z,24.23
2022-12-18T07:18:50.715Z,18.67
2022-12-18T07:21:20.551Z,20.87
2022-12-18T07:23:49.487Z,20.80
2022-12-18T07:26:20.140Z,19.97
2022-12-18T07:28:48.881Z,19.57
2022-12-18T07:31:18.978Z,19.53
2022-12-18T07:33:47.851Z,20.37
2022-12-18T07:36:17.398Z,20.57
2022-12-18T07:38:45.242Z,19.67
2022-12-18T07:41:15.033Z,24.73
2022-12-18T07:43:44.500Z,22.37
2022-12-18T07:46:14.647Z,20.77
2022-12-18T07:48:42.774Z,19.80
2022-12-18T07:51:14.460Z,20.60
2022-12-18T07:53:44.444Z,18.47
2022-12-18T07:56:31.253Z,18.60
2022-12-18T07:59:00.487Z,17.73
2022-12-18T08:01:28.924Z,21.10
2022-12-18T08:03:57.011Z,21.10
2022-12-18T08:06:25.129Z,18.47
2022-12-18T08:08:55.317Z,17.33
2022-12-18T08:11:24.227Z,19.10
2022-12-18T08:13:52.401Z,17.50
2022-12-18T08:16:21.344Z,19.03
2022-12-18T08:18:49.782Z,18.83
2022-12-18T08:21:22.066Z,18.93
2022-12-18T08:23:51.140Z,22.03
2022-12-18T08:26:21.994Z,20.53
2022-12-18T08:28:49.964Z,24.20
2022-12-18T08:31:18.926Z,20.33
2022-12-18T08:33:47.050Z,22.37
2022-12-18T08:36:14.976Z,16.70
2022-12-18T08:38:42.852Z,19.60
2022-12-18T08:41:13.053Z,20.33
2022-12-18T08:44:00.177Z,28.60
2022-12-18T08:46:29.643Z,24.83
2022-12-18T08:48:57.741Z,24.33
2022-12-18T08:51:25.607Z,27.07
2022-12-18T08:53:53.443Z,31.10
2022-12-18T08:56:21.348Z,28.30
2022-12-18T08:58:53.660Z,26.93
2022-12-18T09:01:22.542Z,98.63
2022-12-18T09:03:50.546Z,57.27
2022-12-18T09:06:19.807Z,57.17
2022-12-18T09:08:47.760Z,62.83
2022-12-18T09:11:20.625Z,58.30
2022-12-18T09:13:50.580Z,34.73
2022-12-18T09:16:18.801Z,30.73
2022-12-18T09:18:46.820Z,25.20
2022-12-18T09:21:17.240Z,23.80
2022-12-18T09:23:45.844Z,24.70
2022-12-18T09:26:13.858Z,24.17
2022-12-18T09:28:42.163Z,28.87
2022-12-18T09:31:17.005Z,27.03
2022-12-18T09:33:46.019Z,25.03
2022-12-18T09:36:15.774Z,27.17
2022-12-18T09:38:43.984Z,24.03
2022-12-18T09:41:26.059Z,26.90
2022-12-18T09:43:58.998Z,27.87
2022-12-18T09:46:32.193Z,24.90
2022-12-18T09:49:05.265Z,28.10
2022-12-18T09:51:39.403Z,26.23
2022-12-18T09:54:12.481Z,26.57
2022-12-18T09:56:44.131Z,26.27
2022-12-18T09:59:22.167Z,21.60
2022-12-18T10:01:51.711Z,25.67
2022-12-18T10:04:20.651Z,28.37
2022-12-18T10:06:54.602Z,24.03
2022-12-18T10:09:30.450Z,22.00
2022-12-18T10:12:07.053Z,28.30
2022-12-18T10:14:43.277Z,28.30
2022-12-18T10:17:23.567Z,31.23
2022-12-18T10:19:54.806Z,28.00
2022-12-18T10:22:43.806Z,28.47
2022-12-18T10:25:21.113Z,27.10
2022-12-18T10:27:49.708Z,28.67
2022-12-18T10:30:19.520Z,26.20
2022-12-18T10:32:49.116Z,31.10
2022-12-18T10:35:21.616Z,35.43
2022-12-18T10:38:06.749Z,41.00
2022-12-18T10:40:35.090Z,30.97
2022-12-18T10:43:08.482Z,29.20
2022-12-18T10:45:36.371Z,31.87
2022-12-18T10:48:06.216Z,25.40
2022-12-18T10:53:30.083Z,29.90
2022-12-18T10:56:04.152Z,26.80
2022-12-18T10:58:33.732Z,26.73
2022-12-18T11:01:10.881Z,28.87
2022-12-18T11:03:41.801Z,29.90
2022-12-18T11:06:12.687Z,31.40
2022-12-18T11:08:42.996Z,30.60
2022-12-18T11:11:21.085Z,28.97
2022-12-18T11:13:59.987Z,28.70
2022-12-18T11:16:29.404Z,30.77
2022-12-18T11:19:15.180Z,29.87
2022-12-18T11:21:44.234Z,28.93
2022-12-18T11:24:24.137Z,29.23
2022-12-18T11:26:57.841Z,30.47
2022-12-18T11:29:34.095Z,29.20
2022-12-18T11:32:26.296Z,28.27
2022-12-18T11:35:03.030Z,29.17
2022-12-18T11:37:32.552Z,27.67
2022-12-18T11:40:04.860Z,28.07
2022-12-18T11:42:40.638Z,29.00
2022-12-18T11:45:28.615Z,28.30
2022-12-18T11:48:00.852Z,27.97
2022-12-18T11:50:35.804Z,26.17
2022-12-18T11:53:06.438Z,25.77
2022-12-18T11:55:42.508Z,23.30
2022-12-18T11:58:19.896Z,21.63
2022-12-18T12:00:56.315Z,27.40
2022-12-18T12:03:45.980Z,24.77
2022-12-18T12:06:23.793Z,24.17
2022-12-18T12:09:03.212Z,24.30
2022-12-18T12:11:40.949Z,25.37
2022-12-18T12:14:22.900Z,26.93
2022-12-18T12:16:58.155Z,23.07
2022-12-18T12:19:38.243Z,24.07
2022-12-18T12:22:13.481Z,23.17
2022-12-18T12:24:53.032Z,24.40
2022-12-18T12:27:27.942Z,23.30
2022-12-18T12:30:04.678Z,28.13
2022-12-18T12:32:45.990Z,32.37
2022-12-18T12:35:31.656Z,23.93
2022-12-18T12:38:08.763Z,27.70
2022-12-18T12:40:52.443Z,23.93
2022-12-18T12:43:34.260Z,25.80
2022-12-18T12:46:07.737Z,24.57
2022-12-18T12:48:43.436Z,22.97
2022-12-18T12:51:17.691Z,28.40
2022-12-18T12:53:48.443Z,23.50
2022-12-18T12:56:18.959Z,24.37
2022-12-18T12:59:00.401Z,25.90
2022-12-18T13:01:36.881Z,25.37
2022-12-18T13:04:18.323Z,25.23
2022-12-18T13:06:52.707Z,22.03
2022-12-18T13:09:23.605Z,23.00
2022-12-18T13:12:09.309Z,25.60
2022-12-18T13:14:39.795Z,24.43
2022-12-18T13:17:31.079Z,27.83
2022-12-18T13:20:11.340Z,29.23
2022-12-18T13:22:43.795Z,24.00
2022-12-18T13:25:33.982Z,25.50
2022-12-18T13:28:09.277Z,24.60
2022-12-18T13:30:49.915Z,24.40
2022-12-18T13:34:24.371Z,24.87
2022-12-18T13:36:37.984Z,24.43
2022-12-18T13:39:30.009Z,25.27
2022-12-18T13:42:56.259Z,24.07
2022-12-18T13:45:46.289Z,23.80
2022-12-18T13:48:25.238Z,25.90
2022-12-18T13:51:01.903Z,25.43
2022-12-18T13:53:33.859Z,25.80
2022-12-18T13:56:01.905Z,23.13
2022-12-18T13:58:30.001Z,26.27
2022-12-18T14:01:00.335Z,25.30
2022-12-18T14:03:31.351Z,26.03
2022-12-18T14:06:04.339Z,27.47
2022-12-18T14:08:42.023Z,26.10
2022-12-18T14:11:23.976Z,27.17
2022-12-18T14:13:54.993Z,26.73
2022-12-18T14:16:25.031Z,24.77
2022-12-18T14:19:00.812Z,27.10
2022-12-18T14:21:36.370Z,24.73
2022-12-18T14:24:19.380Z,29.23
2022-12-18T14:26:50.321Z,26.10
2022-12-18T14:29:27.332Z,28.37
2022-12-18T14:32:16.894Z,29.40
2022-12-18T14:34:46.747Z,26.20
2022-12-18T14:37:16.727Z,29.00
2022-12-18T14:39:55.660Z,30.17
2022-12-18T14:42:23.604Z,29.43
2022-12-18T14:45:13.002Z,27.73
2022-12-18T14:47:40.897Z,26.97
2022-12-18T14:50:15.528Z,32.83
2022-12-18T14:52:43.548Z,27.60
2022-12-18T14:55:17.662Z,28.27
2022-12-18T14:57:45.989Z,30.27
2022-12-18T15:00:19.337Z,28.83
2022-12-18T15:02:52.394Z,32.77
2022-12-18T15:05:22.596Z,29.23
2022-12-18T15:07:52.770Z,29.93
2022-12-18T15:10:23.094Z,27.83
2022-12-18T15:12:52.495Z,28.40
2022-12-18T15:15:49.136Z,34.27
2022-12-18T15:18:21.985Z,34.20
2022-12-18T15:20:52.281Z,29.83
2022-12-18T15:23:23.583Z,33.53
2022-12-18T15:26:00.658Z,33.03
2022-12-18T15:28:33.039Z,31.70
2022-12-18T15:31:06.642Z,31.40
2022-12-18T15:33:38.373Z,29.70
2022-12-18T15:36:10.919Z,31.83
2022-12-18T15:38:39.031Z,29.57
2022-12-18T15:41:17.791Z,33.83
2022-12-18T15:43:47.329Z,30.80
2022-12-18T15:46:17.686Z,33.23
2022-12-18T15:48:48.775Z,32.40
2022-12-18T15:51:20.980Z,31.20
2022-12-18T15:53:50.476Z,31.77
2022-12-18T15:56:36.327Z,30.40
2022-12-18T15:59:10.662Z,31.60
2022-12-18T16:01:42.454Z,30.17
2022-12-18T16:04:13.793Z,30.43
2022-12-18T16:07:12.744Z,29.73
2022-12-18T16:09:30.141Z,30.37
2022-12-18T16:12:00.300Z,30.77
2022-12-18T16:14:30.563Z,29.47
2022-12-18T16:17:00.806Z,30.93
2022-12-18T16:19:31.266Z,32.17
2022-12-18T16:22:00.325Z,29.30
2022-12-18T16:24:30.416Z,29.53
2022-12-18T16:27:00.314Z,29.77
2022-12-18T16:29:30.457Z,28.57
2022-12-18T16:32:00.464Z,28.03
2022-12-18T16:34:34.895Z,29.23
2022-12-18T16:37:06.512Z,43.13
2022-12-18T16:39:35.721Z,40.07
2022-12-18T16:42:05.942Z,34.63
2022-12-18T16:44:34.589Z,32.00
2022-12-18T16:47:03.848Z,30.70
2022-12-18T16:49:33.326Z,52.93
2022-12-18T16:52:05.050Z,37.57
2022-12-18T16:54:33.956Z,30.87
2022-12-18T16:57:02.532Z,30.70
2022-12-18T16:59:30.495Z,34.40
2022-12-18T17:01:58.805Z,34.40
2022-12-18T17:04:26.849Z,28.23
2022-12-18T17:06:56.202Z,28.47
2022-12-18T17:09:25.903Z,29.37
2022-12-18T17:11:55.094Z,29.90
2022-12-18T17:14:25.471Z,31.73
2022-12-18T17:17:19.784Z,30.83
2022-12-18T17:19:41.742Z,30.47
2022-12-18T17:22:11.067Z,31.73
2022-12-18T17:24:38.953Z,29.13
2022-12-18T17:27:08.512Z,30.83
2022-12-18T17:29:37.653Z,33.83
2022-12-18T17:32:08.383Z,32.07
2022-12-18T17:34:37.656Z,30.10
2022-12-18T17:37:05.668Z,30.67
2022-12-18T17:39:35.235Z,32.90
2022-12-18T17:42:03.213Z,32.20
2022-12-18T17:44:31.330Z,30.93
2022-12-18T17:46:59.322Z,33.13
2022-12-18T17:49:27.227Z,35.40
2022-12-18T17:51:55.279Z,32.93
2022-12-18T17:54:23.299Z,35.57
2022-12-18T17:56:52.673Z,30.60
2022-12-18T17:59:20.640Z,34.50
2022-12-18T18:01:48.766Z,31.90
2022-12-18T18:04:16.854Z,34.47
2022-12-18T18:06:44.857Z,33.67
2022-12-18T18:09:16.976Z,30.30
2022-12-18T18:12:02.286Z,32.43
2022-12-18T18:14:32.020Z,32.10
2022-12-18T18:17:04.281Z,26.63
2022-12-18T18:19:34.131Z,28.37
2022-12-18T18:22:03.021Z,28.97
2022-12-18T18:24:34.701Z,29.07
2022-12-18T18:27:02.852Z,28.00
2022-12-18T18:29:32.314Z,26.70
2022-12-18T18:32:00.765Z,30.37
2022-12-18T18:34:30.651Z,30.80
2022-12-18T18:37:01.914Z,27.33
2022-12-18T18:39:30.611Z,34.57
2022-12-18T18:41:59.298Z,28.30
2022-12-18T18:44:27.206Z,29.10
2022-12-18T18:46:57.569Z,30.70
2022-12-18T18:49:27.398Z,27.70
2022-12-18T18:51:56.980Z,30.87
2022-12-18T18:54:24.936Z,30.77
2022-12-18T18:59:40.956Z,26.83
2022-12-18T19:02:13.441Z,29.10
2022-12-18T19:04:45.842Z,28.00
2022-12-18T19:07:15.534Z,32.07
2022-12-18T19:09:58.807Z,25.80
2022-12-18T19:12:49.444Z,29.07
2022-12-18T19:15:17.364Z,27.13
2022-12-18T19:17:47.383Z,29.43
2022-12-18T19:20:16.110Z,27.20
2022-12-18T19:22:54.845Z,28.73
2022-12-18T19:25:38.158Z,35.97
2022-12-18T19:28:15.852Z,30.27
2022-12-18T19:30:49.588Z,27.47
2022-12-18T19:33:41.704Z,30.67
2022-12-18T19:36:13.954Z,30.80
2022-12-18T19:38:44.897Z,26.93
2022-12-18T19:41:15.173Z,30.37
2022-12-18T19:43:43.623Z,28.77
2022-12-18T19:46:14.257Z,28.23
2022-12-18T19:48:44.992Z,29.83
2022-12-18T19:51:16.734Z,30.57
2022-12-18T19:53:45.465Z,30.43
2022-12-18T19:56:15.121Z,30.10
2022-12-18T19:58:44.005Z,40.13
2022-12-18T20:01:13.378Z,31.30
2022-12-18T20:03:51.871Z,29.43
2022-12-18T20:06:26.305Z,29.30
2022-12-18T20:09:00.114Z,34.23
2022-12-18T20:11:29.008Z,29.77
2022-12-18T20:13:57.198Z,31.97
2022-12-18T20:16:25.421Z,29.40
2022-12-18T20:18:58.052Z,31.93
2022-12-18T20:21:26.647Z,29.97
2022-12-18T20:23:55.589Z,30.57
2022-12-18T20:26:23.901Z,36.80
2022-12-18T20:28:51.863Z,34.37
2022-12-18T20:31:20.038Z,37.23
2022-12-18T20:33:49.886Z,37.37
2022-12-18T20:36:25.894Z,36.70
2022-12-18T20:38:58.075Z,32.17
2022-12-18T20:41:37.233Z,31.40
2022-12-18T20:44:11.007Z,30.17
2022-12-18T20:46:52.220Z,30.50
2022-12-18T20:49:20.202Z,32.70
2022-12-18T20:51:52.778Z,32.47
2022-12-18T20:54:21.273Z,37.43
2022-12-18T20:56:49.214Z,37.17
2022-12-18T20:59:17.431Z,34.97
2022-12-18T21:01:48.456Z,33.17
2022-12-18T21:04:18.361Z,34.17
2022-12-18T21:06:52.094Z,33.20
2022-12-18T21:09:23.713Z,30.73
2022-12-18T21:12:10.394Z,32.10
2022-12-18T21:14:42.382Z,32.50
2022-12-18T21:17:10.362Z,31.40
2022-12-18T21:19:38.617Z,34.20
2022-12-18T21:22:06.769Z,35.33
2022-12-18T21:24:36.163Z,32.50
2022-12-18T21:27:04.201Z,35.07
2022-12-18T21:29:33.108Z,36.17
2022-12-18T21:32:01.391Z,34.40
2022-12-18T21:34:31.167Z,34.93
2022-12-18T21:37:01.207Z,27.97
2022-12-18T21:39:30.220Z,31.40
2022-12-18T21:42:17.502Z,32.47
2022-12-18T21:44:48.129Z,31.67
2022-12-18T21:47:22.703Z,53.97
2022-12-18T21:49:53.028Z,32.00
2022-12-18T21:52:31.239Z,32.40
2022-12-18T21:55:09.735Z,32.17
2022-12-18T21:57:40.230Z,31.50
2022-12-18T22:00:18.928Z,32.33
2022-12-18T22:02:48.581Z,32.23
2022-12-18T22:05:36.185Z,31.13
2022-12-18T22:08:04.253Z,30.20
2022-12-18T22:10:32.388Z,30.43
2022-12-18T22:13:01.613Z,30.03
2022-12-18T22:15:29.484Z,30.63
2022-12-18T22:18:00.429Z,29.70
2022-12-18T22:20:29.697Z,29.00
2022-12-18T22:22:58.462Z,31.10
2022-12-18T22:25:26.844Z,32.17
2022-12-18T22:28:17.649Z,32.60
2022-12-18T22:30:46.962Z,31.80
2022-12-18T22:33:14.877Z,35.67
2022-12-18T22:35:43.146Z,31.17
2022-12-18T22:38:11.771Z,31.03
2022-12-18T22:40:39.779Z,29.47
2022-12-18T22:43:08.094Z,32.70
2022-12-18T22:45:38.510Z,32.87
2022-12-18T22:48:08.346Z,31.70
2022-12-18T22:50:36.227Z,33.53
2022-12-18T22:53:04.076Z,32.73
2022-12-18T22:55:31.928Z,32.87
2022-12-18T22:57:59.828Z,34.20
2022-12-18T23:00:27.667Z,28.57
2022-12-18T23:03:00.192Z,31.47
2022-12-18T23:05:31.530Z,28.37
2022-12-18T23:07:59.801Z,28.50
2022-12-18T23:10:29.088Z,26.80
2022-12-18T23:12:57.109Z,30.50
2022-12-18T23:15:27.876Z,29.20
2022-12-18T23:17:58.294Z,30.63
2022-12-18T23:20:27.290Z,33.77
2022-12-18T23:22:56.650Z,37.20
2022-12-18T23:25:24.785Z,31.50
2022-12-18T23:27:53.074Z,34.43
2022-12-18T23:30:21.140Z,31.43
2022-12-18T23:32:51.834Z,32.50
2022-12-18T23:35:19.819Z,32.67
2022-12-18T23:38:03.925Z,34.93
2022-12-18T23:40:33.319Z,37.30
2022-12-18T23:43:01.349Z,38.03
2022-12-18T23:45:29.406Z,32.57
2022-12-18T23:47:57.290Z,33.30
2022-12-18T23:50:29.499Z,31.03
2022-12-18T23:53:04.788Z,30.37
2022-12-18T23:55:38.472Z,29.93
2022-12-18T23:58:06.479Z,30.87
